sensor_id;sensor_type;location;lat;lon;timestamp;pressure;altitude;pressure_sealevel;temperature;humidity
58843;BME280;44614;54.356;10.100;2023-04-10T00:02:06;102290.50;;;5.46;100.00
58843;BME280;44614;54.356;10.100;2023-04-10T00:04:31;102308.81;;;5.53;100.00
58843;BME280;44614;54.356;10.100;2023-04-10T00:06:56;102306.59;;;5.57;100.00
58843;BME280;44614;54.356;10.100;2023-04-10T00:09:22;102309.81;;;5.52;100.00
58843;BME280;44614;54.356;10.100;2023-04-10T00:11:47;102314.78;;;5.57;100.00
58843;BME280;44614;54.356;10.100;2023-04-10T00:14:13;102312.06;;;5.57;100.00
58843;BME280;44614;54.356;10.100;2023-04-10T00:16:38;102298.22;;;5.50;100.00
58843;BME280;44614;54.356;10.100;2023-04-10T00:19:03;102317.00;;;5.53;100.00
58843;BME280;44614;54.356;10.100;2023-04-10T00:21:29;102308.81;;;5.53;100.00
58843;BME280;44614;54.356;10.100;2023-04-10T00:23:55;102307.53;;;5.48;100.00
58843;BME280;44614;54.356;10.100;2023-04-10T00:26:20;102300.22;;;5.48;100.00
58843;BME280;44614;54.356;10.100;2023-04-10T00:28:47;102321.56;;;5.53;100.00
58843;BME280;44614;54.356;10.100;2023-04-10T00:31:13;102295.53;;;5.41;100.00
58843;BME280;44614;54.356;10.100;2023-04-10T00:33:38;102294.53;;;5.42;100.00
58843;BME280;44614;54.356;10.100;2023-04-10T00:36:03;102300.84;;;5.42;100.00
58843;BME280;44614;54.356;10.100;2023-04-10T00:38:29;102310.44;;;5.46;100.00
58843;BME280;44614;54.356;10.100;2023-04-10T00:40:54;102311.66;;;5.52;100.00
58843;BME280;44614;54.356;10.100;2023-04-10T00:43:21;102280.25;;;5.30;100.00
58843;BME280;44614;54.356;10.100;2023-04-10T00:45:46;102306.09;;;5.53;100.00
58843;BME280;44614;54.356;10.100;2023-04-10T00:48:13;102305.91;;;5.55;100.00
58843;BME280;44614;54.356;10.100;2023-04-10T00:50:39;102306.94;;;5.54;100.00
58843;BME280;44614;54.356;10.100;2023-04-10T00:53:04;102312.53;;;5.52;100.00
58843;BME280;44614;54.356;10.100;2023-04-10T00:55:30;102301.78;;;5.51;100.00
58843;BME280;44614;54.356;10.100;2023-04-10T00:57:55;102295.31;;;5.52;100.00
58843;BME280;44614;54.356;10.100;2023-04-10T01:00:21;102288.31;;;5.49;100.00
58843;BME280;44614;54.356;10.100;2023-04-10T01:02:47;102295.19;;;5.53;100.00
58843;BME280;44614;54.356;10.100;2023-04-10T01:05:12;102304.03;;;5.55;100.00
58843;BME280;44614;54.356;10.100;2023-04-10T01:13:15;102291.13;;;5.57;100.00
58843;BME280;44614;54.356;10.100;2023-04-10T01:15:51;102295.72;;;5.57;100.00
58843;BME280;44614;54.356;10.100;2023-04-10T01:18:28;102262.00;;;5.40;100.00
58843;BME280;44614;54.356;10.100;2023-04-10T01:20:57;102275.41;;;5.51;100.00
58843;BME280;44614;54.356;10.100;2023-04-10T01:26:48;102280.13;;;5.49;100.00
58843;BME280;44614;54.356;10.100;2023-04-10T01:29:17;102289.41;;;5.56;100.00
58843;BME280;44614;54.356;10.100;2023-04-10T01:34:22;102256.16;;;5.35;100.00
58843;BME280;44614;54.356;10.100;2023-04-10T01:36:55;102267.16;;;5.43;100.00
58843;BME280;44614;54.356;10.100;2023-04-10T01:39:22;102288.00;;;5.52;100.00
58843;BME280;44614;54.356;10.100;2023-04-10T01:41:51;102280.84;;;5.51;100.00
58843;BME280;44614;54.356;10.100;2023-04-10T01:44:17;102288.31;;;5.49;100.00
58843;BME280;44614;54.356;10.100;2023-04-10T01:46:43;102249.66;;;5.18;100.00
58843;BME280;44614;54.356;10.100;2023-04-10T01:49:10;102284.19;;;5.45;100.00
58843;BME280;44614;54.356;10.100;2023-04-10T01:51:36;102255.75;;;5.30;100.00
58843;BME280;44614;54.356;10.100;2023-04-10T01:54:02;102239.19;;;5.23;100.00
58843;BME280;44614;54.356;10.100;2023-04-10T01:56:28;102268.84;;;5.44;100.00
58843;BME280;44614;54.356;10.100;2023-04-10T01:58:55;102238.00;;;5.26;100.00
58843;BME280;44614;54.356;10.100;2023-04-10T02:01:20;102234.59;;;5.24;100.00
58843;BME280;44614;54.356;10.100;2023-04-10T02:03:46;102263.69;;;5.41;100.00
58843;BME280;44614;54.356;10.100;2023-04-10T02:08:50;102206.09;;;5.00;100.00
58843;BME280;44614;54.356;10.100;2023-04-10T02:14:03;102239.81;;;5.35;100.00
58843;BME280;44614;54.356;10.100;2023-04-10T02:16:30;102242.94;;;5.40;100.00
58843;BME280;44614;54.356;10.100;2023-04-10T02:18:57;102245.66;;;5.40;100.00
58843;BME280;44614;54.356;10.100;2023-04-10T02:21:24;102208.75;;;5.28;100.00
58843;BME280;44614;54.356;10.100;2023-04-10T02:23:51;102232.03;;;5.40;100.00
58843;BME280;44614;54.356;10.100;2023-04-10T02:26:16;102230.63;;;5.36;100.00
58843;BME280;44614;54.356;10.100;2023-04-10T02:28:41;102225.91;;;5.38;100.00
58843;BME280;44614;54.356;10.100;2023-04-10T02:31:06;102212.03;;;5.31;100.00
58843;BME280;44614;54.356;10.100;2023-04-10T02:33:32;102219.00;;;5.34;100.00
58843;BME280;44614;54.356;10.100;2023-04-10T02:35:59;102222.47;;;5.36;100.00
58843;BME280;44614;54.356;10.100;2023-04-10T02:38:24;102203.16;;;5.29;100.00
58843;BME280;44614;54.356;10.100;2023-04-10T02:40:50;102202.84;;;5.32;100.00
58843;BME280;44614;54.356;10.100;2023-04-10T02:43:15;102191.56;;;5.27;100.00
58843;BME280;44614;54.356;10.100;2023-04-10T02:45:40;102205.56;;;5.32;100.00
58843;BME280;44614;54.356;10.100;2023-04-10T02:48:06;102203.69;;;5.33;100.00
58843;BME280;44614;54.356;10.100;2023-04-10T02:50:32;102185.56;;;5.24;100.00
58843;BME280;44614;54.356;10.100;2023-04-10T02:52:57;102198.41;;;5.31;100.00
58843;BME280;44614;54.356;10.100;2023-04-10T02:55:23;102156.16;;;5.09;100.00
58843;BME280;44614;54.356;10.100;2023-04-10T02:57:48;102169.28;;;5.14;100.00
58843;BME280;44614;54.356;10.100;2023-04-10T03:00:14;102183.88;;;5.23;100.00
58843;BME280;44614;54.356;10.100;2023-04-10T03:02:39;102148.59;;;5.03;100.00
58843;BME280;44614;54.356;10.100;2023-04-10T03:05:05;102184.25;;;5.28;100.00
58843;BME280;44614;54.356;10.100;2023-04-10T03:07:32;102170.25;;;5.23;100.00
58843;BME280;44614;54.356;10.100;2023-04-10T03:09:58;102154.44;;;5.08;100.00
58843;BME280;44614;54.356;10.100;2023-04-10T03:12:23;102169.53;;;5.21;100.00
58843;BME280;44614;54.356;10.100;2023-04-10T03:14:48;102130.72;;;5.01;100.00
58843;BME280;44614;54.356;10.100;2023-04-10T03:17:14;102143.25;;;5.11;100.00
58843;BME280;44614;54.356;10.100;2023-04-10T03:19:39;102159.50;;;5.21;100.00
58843;BME280;44614;54.356;10.100;2023-04-10T03:22:04;102105.03;;;4.85;100.00
58843;BME280;44614;54.356;10.100;2023-04-10T03:24:29;102142.91;;;5.14;100.00
58843;BME280;44614;54.356;10.100;2023-04-10T03:26:55;102154.22;;;5.20;100.00
58843;BME280;44614;54.356;10.100;2023-04-10T03:29:24;102129.38;;;5.05;100.00
58843;BME280;44614;54.356;10.100;2023-04-10T03:31:49;102149.75;;;5.19;100.00
58843;BME280;44614;54.356;10.100;2023-04-10T03:34:14;102139.19;;;5.16;100.00
58843;BME280;44614;54.356;10.100;2023-04-10T03:36:40;102134.59;;;5.16;100.00
58843;BME280;44614;54.356;10.100;2023-04-10T03:39:06;102146.03;;;5.20;100.00
58843;BME280;44614;54.356;10.100;2023-04-10T03:41:31;102047.50;;;4.62;100.00
58843;BME280;44614;54.356;10.100;2023-04-10T03:43:57;102156.09;;;5.19;100.00
58843;BME280;44614;54.356;10.100;2023-04-10T03:46:23;102149.75;;;5.19;100.00
58843;BME280;44614;54.356;10.100;2023-04-10T03:48:48;102149.38;;;5.13;100.00
58843;BME280;44614;54.356;10.100;2023-04-10T03:51:18;102152.41;;;5.10;100.00
58843;BME280;44614;54.356;10.100;2023-04-10T03:53:43;102147.69;;;5.12;100.00
58843;BME280;44614;54.356;10.100;2023-04-10T03:56:08;102088.94;;;4.74;100.00
58843;BME280;44614;54.356;10.100;2023-04-10T03:58:33;102082.94;;;4.71;100.00
58843;BME280;44614;54.356;10.100;2023-04-10T04:00:59;102159.78;;;5.18;100.00
58843;BME280;44614;54.356;10.100;2023-04-10T04:03:24;102153.81;;;5.14;100.00
58843;BME280;44614;54.356;10.100;2023-04-10T04:05:50;102156.38;;;5.16;100.00
58843;BME280;44614;54.356;10.100;2023-04-10T04:08:16;102147.38;;;5.16;100.00
58843;BME280;44614;54.356;10.100;2023-04-10T04:10:41;102146.47;;;5.15;100.00
58843;BME280;44614;54.356;10.100;2023-04-10T04:13:06;102119.56;;;4.94;100.00
58843;BME280;44614;54.356;10.100;2023-04-10T04:15:32;102144.53;;;5.07;100.00
58843;BME280;44614;54.356;10.100;2023-04-10T04:17:57;102140.41;;;5.03;100.00
58843;BME280;44614;54.356;10.100;2023-04-10T04:20:22;102148.69;;;5.11;100.00
58843;BME280;44614;54.356;10.100;2023-04-10T04:22:48;102129.88;;;5.00;100.00
58843;BME280;44614;54.356;10.100;2023-04-10T04:25:13;102143.56;;;5.08;100.00
58843;BME280;44614;54.356;10.100;2023-04-10T04:27:38;102139.25;;;5.06;100.00
58843;BME280;44614;54.356;10.100;2023-04-10T04:30:04;102145.25;;;5.09;100.00
58843;BME280;44614;54.356;10.100;2023-04-10T04:32:30;102131.56;;;5.01;100.00
58843;BME280;44614;54.356;10.100;2023-04-10T04:34:55;102143.56;;;5.08;100.00
58843;BME280;44614;54.356;10.100;2023-04-10T04:37:21;102134.97;;;5.03;100.00
58843;BME280;44614;54.356;10.100;2023-04-10T04:39:46;102137.25;;;5.08;100.00
58843;BME280;44614;54.356;10.100;2023-04-10T04:42:11;102144.53;;;5.07;100.00
58843;BME280;44614;54.356;10.100;2023-04-10T04:44:36;102144.03;;;5.04;100.00
58843;BME280;44614;54.356;10.100;2023-04-10T04:47:02;102114.75;;;4.88;100.00
58843;BME280;44614;54.356;10.100;2023-04-10T04:49:27;102143.56;;;5.08;100.00
58843;BME280;44614;54.356;10.100;2023-04-10T04:51:53;102132.13;;;5.05;100.00
58843;BME280;44614;54.356;10.100;2023-04-10T04:54:18;102126.66;;;5.05;100.00
58843;BME280;44614;54.356;10.100;2023-04-10T04:56:43;102131.09;;;5.06;100.00
58843;BME280;44614;54.356;10.100;2023-04-10T04:59:08;102128.91;;;5.09;100.00
58843;BME280;44614;54.356;10.100;2023-04-10T05:01:34;102135.44;;;5.17;100.00
58843;BME280;44614;54.356;10.100;2023-04-10T05:03:59;102131.16;;;5.14;100.00
58843;BME280;44614;54.356;10.100;2023-04-10T05:06:24;102133.41;;;5.19;100.00
58843;BME280;44614;54.356;10.100;2023-04-10T05:08:50;102111.19;;;5.05;100.00
58843;BME280;44614;54.356;10.100;2023-04-10T05:11:17;102137.94;;;5.28;100.00
58843;BME280;44614;54.356;10.100;2023-04-10T05:13:42;102134.19;;;5.29;100.00
58843;BME280;44614;54.356;10.100;2023-04-10T05:16:07;102095.00;;;5.04;100.00
58843;BME280;44614;54.356;10.100;2023-04-10T05:18:34;102012.13;;;4.62;100.00
58843;BME280;44614;54.356;10.100;2023-04-10T05:20:59;102134.81;;;5.41;100.00
58843;BME280;44614;54.356;10.100;2023-04-10T05:23:24;102135.50;;;5.43;100.00
58843;BME280;44614;54.356;10.100;2023-04-10T05:25:50;102123.75;;;5.42;100.00
58843;BME280;44614;54.356;10.100;2023-04-10T05:28:16;102130.25;;;5.49;100.00
58843;BME280;44614;54.356;10.100;2023-04-10T05:30:41;102097.50;;;5.41;100.00
58843;BME280;44614;54.356;10.100;2023-04-10T05:33:07;102087.81;;;5.38;100.00
58843;BME280;44614;54.356;10.100;2023-04-10T05:35:32;102087.63;;;5.40;100.00
58843;BME280;44614;54.356;10.100;2023-04-10T05:37:57;102120.34;;;5.66;100.00
58843;BME280;44614;54.356;10.100;2023-04-10T05:40:23;102120.06;;;5.69;100.00
58843;BME280;44614;54.356;10.100;2023-04-10T05:42:48;102110.84;;;5.70;100.00
58843;BME280;44614;54.356;10.100;2023-04-10T05:45:13;102110.22;;;5.76;100.00
58843;BME280;44614;54.356;10.100;2023-04-10T05:47:39;102100.47;;;5.74;100.00
58843;BME280;44614;54.356;10.100;2023-04-10T05:50:04;102101.88;;;5.78;100.00
58843;BME280;44614;54.356;10.100;2023-04-10T05:52:30;102077.81;;;5.73;100.00
58843;BME280;44614;54.356;10.100;2023-04-10T05:54:55;102108.50;;;6.01;100.00
58843;BME280;44614;54.356;10.100;2023-04-10T05:57:21;102105.28;;;6.06;100.00
58843;BME280;44614;54.356;10.100;2023-04-10T05:59:46;102091.19;;;6.10;100.00
58843;BME280;44614;54.356;10.100;2023-04-10T06:02:11;102104.91;;;6.35;100.00
58843;BME280;44614;54.356;10.100;2023-04-10T06:04:37;102103.91;;;6.44;100.00
58843;BME280;44614;54.356;10.100;2023-04-10T06:07:02;102054.75;;;6.28;100.00
58843;BME280;44614;54.356;10.100;2023-04-10T06:09:28;102109.47;;;6.69;100.00
58843;BME280;44614;54.356;10.100;2023-04-10T06:11:53;102089.31;;;6.70;100.00
58843;BME280;44614;54.356;10.100;2023-04-10T06:14:18;102092.78;;;6.80;100.00
58843;BME280;44614;54.356;10.100;2023-04-10T06:16:44;102085.44;;;6.89;99.94
58843;BME280;44614;54.356;10.100;2023-04-10T06:19:10;102046.00;;;6.75;99.33
58843;BME280;44614;54.356;10.100;2023-04-10T06:21:35;102076.06;;;6.99;98.85
58843;BME280;44614;54.356;10.100;2023-04-10T06:24:01;102069.06;;;7.13;99.03
58843;BME280;44614;54.356;10.100;2023-04-10T06:26:26;102059.66;;;7.24;98.73
58843;BME280;44614;54.356;10.100;2023-04-10T06:28:51;102054.03;;;7.42;97.96
58843;BME280;44614;54.356;10.100;2023-04-10T06:31:18;102031.47;;;7.31;97.13
58843;BME280;44614;54.356;10.100;2023-04-10T06:33:46;102053.31;;;7.56;96.65
58843;BME280;44614;54.356;10.100;2023-04-10T06:36:12;102040.16;;;7.60;96.66
58843;BME280;44614;54.356;10.100;2023-04-10T06:38:37;102044.22;;;7.72;96.30
58843;BME280;44614;54.356;10.100;2023-04-10T06:41:04;102042.47;;;7.87;95.60
58843;BME280;44614;54.356;10.100;2023-04-10T06:43:32;102044.88;;;7.90;94.70
58843;BME280;44614;54.356;10.100;2023-04-10T06:45:58;102045.53;;;7.92;94.39
58843;BME280;44614;54.356;10.100;2023-04-10T06:48:23;102007.13;;;7.77;93.56
58843;BME280;44614;54.356;10.100;2023-04-10T06:50:49;102053.38;;;7.95;93.30
58843;BME280;44614;54.356;10.100;2023-04-10T06:53:14;102021.78;;;7.85;92.94
58843;BME280;44614;54.356;10.100;2023-04-10T06:55:39;102021.44;;;7.88;93.35
58843;BME280;44614;54.356;10.100;2023-04-10T06:58:05;102041.41;;;7.96;91.78
58843;BME280;44614;54.356;10.100;2023-04-10T07:00:30;102037.94;;;8.11;92.09
58843;BME280;44614;54.356;10.100;2023-04-10T07:02:55;102027.34;;;8.07;92.24
58843;BME280;44614;54.356;10.100;2023-04-10T07:05:20;102027.66;;;8.13;91.36
58843;BME280;44614;54.356;10.100;2023-04-10T07:07:46;102030.31;;;8.29;92.33
58843;BME280;44614;54.356;10.100;2023-04-10T07:10:11;102008.09;;;8.24;89.88
58843;BME280;44614;54.356;10.100;2023-04-10T07:12:37;102034.53;;;8.48;90.43
58843;BME280;44614;54.356;10.100;2023-04-10T07:15:03;102050.06;;;8.56;90.46
58843;BME280;44614;54.356;10.100;2023-04-10T07:17:29;102029.66;;;8.58;90.32
58843;BME280;44614;54.356;10.100;2023-04-10T07:19:54;102025.00;;;8.67;89.66
58843;BME280;44614;54.356;10.100;2023-04-10T07:22:20;102012.88;;;8.61;88.99
58843;BME280;44614;54.356;10.100;2023-04-10T07:24:45;101999.00;;;8.63;89.41
58843;BME280;44614;54.356;10.100;2023-04-10T07:27:10;102016.66;;;8.83;88.82
58843;BME280;44614;54.356;10.100;2023-04-10T07:29:37;102029.97;;;9.09;87.44
58843;BME280;44614;54.356;10.100;2023-04-10T07:32:03;102027.66;;;9.21;87.85
58843;BME280;44614;54.356;10.100;2023-04-10T07:34:29;102025.78;;;9.36;85.73
58843;BME280;44614;54.356;10.100;2023-04-10T07:36:55;101997.03;;;9.32;85.66
58843;BME280;44614;54.356;10.100;2023-04-10T07:39:20;102025.34;;;9.62;85.09
58843;BME280;44614;54.356;10.100;2023-04-10T07:41:46;102020.78;;;9.84;85.81
58843;BME280;44614;54.356;10.100;2023-04-10T07:44:11;102000.09;;;9.82;81.33
58843;BME280;44614;54.356;10.100;2023-04-10T07:46:37;101992.03;;;9.80;82.91
58843;BME280;44614;54.356;10.100;2023-04-10T07:49:03;102014.66;;;9.97;81.49
58843;BME280;44614;54.356;10.100;2023-04-10T07:51:28;102014.94;;;10.02;79.87
58843;BME280;44614;54.356;10.100;2023-04-10T07:53:54;102018.72;;;10.16;81.97
58843;BME280;44614;54.356;10.100;2023-04-10T07:56:20;101992.38;;;10.21;81.76
58843;BME280;44614;54.356;10.100;2023-04-10T07:58:47;102011.78;;;10.35;80.43
58843;BME280;44614;54.356;10.100;2023-04-10T08:01:13;102018.69;;;10.45;79.40
58843;BME280;44614;54.356;10.100;2023-04-10T08:03:40;102003.19;;;10.59;81.62
58843;BME280;44614;54.356;10.100;2023-04-10T08:06:07;102002.16;;;10.82;82.15
58843;BME280;44614;54.356;10.100;2023-04-10T08:08:37;101988.72;;;10.93;80.46
58843;BME280;44614;54.356;10.100;2023-04-10T08:11:06;101985.06;;;11.08;78.11
58843;BME280;44614;54.356;10.100;2023-04-10T08:13:32;101995.56;;;11.26;79.14
58843;BME280;44614;54.356;10.100;2023-04-10T08:15:58;101989.75;;;11.42;78.25
58843;BME280;44614;54.356;10.100;2023-04-10T08:18:24;101987.69;;;11.51;74.60
58843;BME280;44614;54.356;10.100;2023-04-10T08:20:49;101978.38;;;11.52;76.21
58843;BME280;44614;54.356;10.100;2023-04-10T08:23:15;101972.47;;;11.55;76.62
58843;BME280;44614;54.356;10.100;2023-04-10T08:25:40;101970.69;;;11.75;76.54
58843;BME280;44614;54.356;10.100;2023-04-10T08:28:05;101974.63;;;11.87;76.91
58843;BME280;44614;54.356;10.100;2023-04-10T08:30:30;101962.19;;;11.98;76.87
58843;BME280;44614;54.356;10.100;2023-04-10T08:32:56;101974.91;;;12.06;73.36
58843;BME280;44614;54.356;10.100;2023-04-10T08:35:21;101941.19;;;11.97;75.63
58843;BME280;44614;54.356;10.100;2023-04-10T08:37:46;101953.34;;;12.16;74.68
58843;BME280;44614;54.356;10.100;2023-04-10T08:40:12;101956.34;;;12.21;75.05
58843;BME280;44614;54.356;10.100;2023-04-10T08:42:37;101962.28;;;12.31;74.05
58843;BME280;44614;54.356;10.100;2023-04-10T08:45:03;101956.59;;;12.33;72.08
58843;BME280;44614;54.356;10.100;2023-04-10T08:47:28;101944.72;;;12.39;74.57
58843;BME280;44614;54.356;10.100;2023-04-10T08:50:00;101953.66;;;12.54;74.33
58843;BME280;44614;54.356;10.100;2023-04-10T08:52:29;101956.22;;;12.69;75.03
58843;BME280;44614;54.356;10.100;2023-04-10T08:54:59;101943.94;;;12.78;74.92
58843;BME280;44614;54.356;10.100;2023-04-10T08:57:27;101954.13;;;12.91;74.25
58843;BME280;44614;54.356;10.100;2023-04-10T08:59:53;101935.44;;;13.00;73.34
58843;BME280;44614;54.356;10.100;2023-04-10T09:02:21;101930.59;;;13.02;71.94
58843;BME280;44614;54.356;10.100;2023-04-10T09:04:50;101930.97;;;13.12;67.38
58843;BME280;44614;54.356;10.100;2023-04-10T09:07:16;101920.59;;;13.27;70.47
58843;BME280;44614;54.356;10.100;2023-04-10T09:09:42;101894.31;;;12.98;69.02
58843;BME280;44614;54.356;10.100;2023-04-10T09:12:07;101907.41;;;13.16;70.44
58843;BME280;44614;54.356;10.100;2023-04-10T09:14:34;101916.38;;;13.25;70.86
58843;BME280;44614;54.356;10.100;2023-04-10T09:17:14;101905.47;;;13.50;72.93
58843;BME280;44614;54.356;10.100;2023-04-10T09:19:41;101903.53;;;13.70;71.04
58843;BME280;44614;54.356;10.100;2023-04-10T09:22:07;101907.72;;;13.79;68.92
58843;BME280;44614;54.356;10.100;2023-04-10T09:24:40;101874.00;;;13.64;68.96
58843;BME280;44614;54.356;10.100;2023-04-10T09:27:08;101890.31;;;13.79;69.03
58843;BME280;44614;54.356;10.100;2023-04-10T09:29:38;101882.84;;;13.86;68.78
58843;BME280;44614;54.356;10.100;2023-04-10T09:32:04;101865.38;;;13.92;68.89
58843;BME280;44614;54.356;10.100;2023-04-10T09:34:29;101875.25;;;14.13;67.45
58843;BME280;44614;54.356;10.100;2023-04-10T09:36:59;101871.28;;;14.34;65.56
58843;BME280;44614;54.356;10.100;2023-04-10T09:39:35;101872.50;;;14.51;67.28
58843;BME280;44614;54.356;10.100;2023-04-10T09:42:03;101862.00;;;14.60;64.39
58843;BME280;44614;54.356;10.100;2023-04-10T09:44:33;101853.25;;;14.63;63.51
58843;BME280;44614;54.356;10.100;2023-04-10T09:49:51;101827.72;;;14.86;61.25
58843;BME280;44614;54.356;10.100;2023-04-10T09:54:46;101827.97;;;15.03;59.40
58843;BME280;44614;54.356;10.100;2023-04-10T09:57:16;101808.63;;;15.03;59.55
58843;BME280;44614;54.356;10.100;2023-04-10T09:59:49;101819.16;;;15.13;57.04
58843;BME280;44614;54.356;10.100;2023-04-10T10:02:20;101819.56;;;15.16;58.99
58843;BME280;44614;54.356;10.100;2023-04-10T10:04:46;101813.00;;;15.29;63.00
58843;BME280;44614;54.356;10.100;2023-04-10T10:07:17;101801.09;;;15.47;60.39
58843;BME280;44614;54.356;10.100;2023-04-10T10:09:44;101797.47;;;15.46;58.28
58843;BME280;44614;54.356;10.100;2023-04-10T10:12:10;101778.16;;;15.58;51.98
58843;BME280;44614;54.356;10.100;2023-04-10T10:17:23;101773.84;;;15.80;60.86
58843;BME280;44614;54.356;10.100;2023-04-10T10:20:10;101772.13;;;15.79;53.93
58843;BME280;44614;54.356;10.100;2023-04-10T10:22:37;101764.91;;;15.78;60.90
58843;BME280;44614;54.356;10.100;2023-04-10T10:25:03;101759.16;;;15.80;55.60
58843;BME280;44614;54.356;10.100;2023-04-10T10:27:30;101760.50;;;15.89;58.74
58843;BME280;44614;54.356;10.100;2023-04-10T10:29:59;101751.56;;;15.87;54.09
58843;BME280;44614;54.356;10.100;2023-04-10T10:32:25;101747.44;;;15.78;57.14
58843;BME280;44614;54.356;10.100;2023-04-10T10:34:52;101756.38;;;15.80;59.69
58843;BME280;44614;54.356;10.100;2023-04-10T10:37:21;101749.50;;;15.82;58.85
58843;BME280;44614;54.356;10.100;2023-04-10T10:42:45;101740.31;;;16.12;57.79
58843;BME280;44614;54.356;10.100;2023-04-10T10:45:20;101721.88;;;16.18;59.46
58843;BME280;44614;54.356;10.100;2023-04-10T10:47:50;101721.28;;;16.27;56.60
58843;BME280;44614;54.356;10.100;2023-04-10T10:50:16;101720.56;;;16.44;59.15
58843;BME280;44614;54.356;10.100;2023-04-10T10:52:51;101711.88;;;16.40;51.84
58843;BME280;44614;54.356;10.100;2023-04-10T10:57:47;101712.38;;;16.72;57.05
58843;BME280;44614;54.356;10.100;2023-04-10T11:00:14;101696.34;;;16.74;54.50
58843;BME280;44614;54.356;10.100;2023-04-10T11:02:39;101688.50;;;16.71;55.83
58843;BME280;44614;54.356;10.100;2023-04-10T11:05:05;101671.88;;;16.71;53.64
58843;BME280;44614;54.356;10.100;2023-04-10T11:11:06;101658.50;;;16.45;49.07
58843;BME280;44614;54.356;10.100;2023-04-10T11:13:35;101655.94;;;16.55;56.59
58843;BME280;44614;54.356;10.100;2023-04-10T11:16:02;101657.13;;;16.71;56.47
58843;BME280;44614;54.356;10.100;2023-04-10T11:23:35;101647.78;;;16.48;45.33
58843;BME280;44614;54.356;10.100;2023-04-10T11:26:01;101626.44;;;16.49;50.50
58843;BME280;44614;54.356;10.100;2023-04-10T11:28:37;101618.13;;;16.49;47.29
58843;BME280;44614;54.356;10.100;2023-04-10T11:31:21;101629.28;;;16.66;52.61
58843;BME280;44614;54.356;10.100;2023-04-10T11:34:09;101626.03;;;16.80;53.72
58843;BME280;44614;54.356;10.100;2023-04-10T11:36:39;101621.31;;;16.81;51.32
58843;BME280;44614;54.356;10.100;2023-04-10T11:39:08;101616.78;;;17.03;52.21
58843;BME280;44614;54.356;10.100;2023-04-10T11:44:01;101602.50;;;17.12;52.33
58843;BME280;44614;54.356;10.100;2023-04-10T11:46:27;101596.56;;;17.20;48.79
58843;BME280;44614;54.356;10.100;2023-04-10T11:49:02;101593.19;;;17.18;53.63
58843;BME280;44614;54.356;10.100;2023-04-10T11:51:28;101577.72;;;17.22;53.06
58843;BME280;44614;54.356;10.100;2023-04-10T11:54:10;101570.84;;;16.96;46.26
58843;BME280;44614;54.356;10.100;2023-04-10T11:56:39;101588.69;;;17.28;52.75
58843;BME280;44614;54.356;10.100;2023-04-10T11:59:06;101570.09;;;17.29;51.77
58843;BME280;44614;54.356;10.100;2023-04-10T12:01:33;101571.09;;;17.40;53.20
58843;BME280;44614;54.356;10.100;2023-04-10T12:04:00;101568.34;;;17.57;53.49
58843;BME280;44614;54.356;10.100;2023-04-10T12:06:26;101557.88;;;17.47;47.99
58843;BME280;44614;54.356;10.100;2023-04-10T12:08:52;101552.88;;;17.44;52.55
58843;BME280;44614;54.356;10.100;2023-04-10T12:11:19;101568.75;;;17.65;48.26
58843;BME280;44614;54.356;10.100;2023-04-10T12:13:46;101573.66;;;17.92;51.46
58843;BME280;44614;54.356;10.100;2023-04-10T12:16:14;101532.69;;;17.82;51.75
58843;BME280;44614;54.356;10.100;2023-04-10T12:18:40;101521.19;;;17.95;46.36
58843;BME280;44614;54.356;10.100;2023-04-10T12:21:06;101513.97;;;17.94;49.18
58843;BME280;44614;54.356;10.100;2023-04-10T12:23:32;101528.19;;;17.98;50.37
58843;BME280;44614;54.356;10.100;2023-04-10T12:26:08;101526.00;;;18.22;44.82
58843;BME280;44614;54.356;10.100;2023-04-10T12:28:34;101528.88;;;17.88;41.99
58843;BME280;44614;54.356;10.100;2023-04-10T12:30:59;101461.97;;;17.56;49.83
58843;BME280;44614;54.356;10.100;2023-04-10T12:33:25;101511.63;;;18.08;50.32
58843;BME280;44614;54.356;10.100;2023-04-10T12:35:51;101493.09;;;18.14;48.60
58843;BME280;44614;54.356;10.100;2023-04-10T12:38:41;101513.13;;;18.38;40.12
58843;BME280;44614;54.356;10.100;2023-04-10T12:41:08;101494.59;;;18.21;48.20
58843;BME280;44614;54.356;10.100;2023-04-10T12:43:37;101507.56;;;18.38;47.94
58843;BME280;44614;54.356;10.100;2023-04-10T12:46:04;101501.63;;;18.51;41.53
58843;BME280;44614;54.356;10.100;2023-04-10T12:48:30;101512.03;;;18.83;46.69
58843;BME280;44614;54.356;10.100;2023-04-10T12:50:56;101508.44;;;18.87;48.44
58843;BME280;44614;54.356;10.100;2023-04-10T12:53:21;101495.50;;;18.71;48.02
58843;BME280;44614;54.356;10.100;2023-04-10T12:56:00;101482.22;;;18.78;43.51
58843;BME280;44614;54.356;10.100;2023-04-10T12:58:26;101453.88;;;18.59;47.84
58843;BME280;44614;54.356;10.100;2023-04-10T13:00:53;101474.09;;;18.77;45.72
58843;BME280;44614;54.356;10.100;2023-04-10T13:03:19;101459.44;;;18.59;48.16
58843;BME280;44614;54.356;10.100;2023-04-10T13:05:45;101451.25;;;18.47;41.09
58843;BME280;44614;54.356;10.100;2023-04-10T13:08:11;101449.81;;;18.45;46.06
58843;BME280;44614;54.356;10.100;2023-04-10T13:10:36;101450.97;;;18.49;46.74
58843;BME280;44614;54.356;10.100;2023-04-10T13:13:03;101457.00;;;18.41;47.27
58843;BME280;44614;54.356;10.100;2023-04-10T13:15:28;101429.22;;;18.41;47.39
58843;BME280;44614;54.356;10.100;2023-04-10T13:17:54;101434.53;;;18.20;41.64
58843;BME280;44614;54.356;10.100;2023-04-10T13:20:20;101428.00;;;18.10;42.71